createdAt,value
2017-10-21T00:01:42.391Z,100439
2017-10-21T00:06:45.575Z,100428
2017-10-21T00:11:49.533Z,100434
2017-10-21T00:16:52.710Z,100431
2017-10-21T00:21:56.673Z,100437
2017-10-21T00:26:59.872Z,100426
2017-10-21T00:32:03.141Z,100442
2017-10-21T00:37:07.098Z,100428
2017-10-21T00:42:10.276Z,100416
2017-10-21T00:47:14.231Z,100394
2017-10-21T00:52:17.472Z,100389
2017-10-21T00:57:20.619Z,100406
2017-10-21T01:02:24.577Z,100396
2017-10-21T01:07:27.915Z,100415
2017-10-21T01:12:31.171Z,100401
2017-10-21T01:17:34.341Z,100397
2017-10-21T01:22:37.614Z,100397
2017-10-21T01:27:40.770Z,100398
2017-10-21T01:32:44.873Z,100379
2017-10-21T01:37:48.058Z,100377
2017-10-21T01:42:51.220Z,100379
2017-10-21T01:47:55.143Z,100382
2017-10-21T01:52:59.149Z,100387
2017-10-21T01:58:02.337Z,100388
2017-10-21T02:03:05.504Z,100382
2017-10-21T02:08:08.695Z,100377
2017-10-21T02:13:11.877Z,100366
2017-10-21T02:18:15.041Z,100360
2017-10-21T02:23:18.227Z,100355
2017-10-21T02:28:22.164Z,100351
2017-10-21T02:33:25.345Z,100352
2017-10-21T02:38:28.520Z,100357
2017-10-21T02:43:31.681Z,100351
2017-10-21T02:48:34.852Z,100357
2017-10-21T02:53:38.828Z,100360
2017-10-21T02:58:42.002Z,100359
2017-10-21T03:03:45.193Z,100348
2017-10-21T03:08:49.122Z,100363
2017-10-21T03:13:53.085Z,100353
2017-10-21T03:18:56.262Z,100353
2017-10-21T03:23:59.416Z,100345
2017-10-21T03:29:02.602Z,100344
2017-10-21T03:34:05.796Z,100347
2017-10-21T03:39:08.984Z,100340
2017-10-21T03:44:12.922Z,100344
2017-10-21T03:49:16.086Z,100344
2017-10-21T03:54:20.050Z,100341
2017-10-21T03:59:23.240Z,100340
2017-10-21T04:04:26.400Z,100335
2017-10-21T04:09:29.587Z,100335
2017-10-21T04:14:32.917Z,100331
2017-10-21T04:19:36.097Z,100326
2017-10-21T04:24:39.262Z,100339
2017-10-21T04:29:43.218Z,100341
2017-10-21T04:34:46.398Z,100332
2017-10-21T04:39:49.567Z,100340
2017-10-21T04:44:52.758Z,100341
2017-10-21T04:49:56.089Z,100325
2017-10-21T04:54:59.277Z,100315
2017-10-21T05:00:02.453Z,100317
2017-10-21T05:05:05.619Z,100313
2017-10-21T05:10:08.810Z,100316
2017-10-21T05:15:11.997Z,100315
2017-10-21T05:20:15.165Z,100297
2017-10-21T05:25:18.349Z,100312
2017-10-21T05:30:22.296Z,100311
2017-10-21T05:35:25.462Z,100305
2017-10-21T05:40:28.651Z,100295
2017-10-21T05:45:31.839Z,100303
2017-10-21T05:50:35.019Z,100305
2017-10-21T05:55:38.214Z,100330
2017-10-21T06:00:42.129Z,100325
2017-10-21T06:05:46.081Z,100324
2017-10-21T06:10:49.267Z,100330
2017-10-21T06:15:53.326Z,100314
2017-10-21T06:20:56.501Z,100324
2017-10-21T06:26:00.454Z,100315
2017-10-21T06:31:03.707Z,100331
2017-10-21T06:36:06.906Z,100314
2017-10-21T06:41:10.106Z,100295
2017-10-21T06:46:13.295Z,100307
2017-10-21T06:51:16.471Z,100298
2017-10-21T06:56:19.670Z,100306
2017-10-21T07:01:22.855Z,100310
2017-10-21T07:06:26.032Z,100318
2017-10-21T07:11:29.202Z,100308
2017-10-21T07:16:32.392Z,100319
2017-10-21T07:21:36.331Z,100313
2017-10-21T07:26:39.517Z,100309
2017-10-21T07:31:43.479Z,100305
2017-10-21T07:36:46.678Z,100311
2017-10-21T07:41:49.880Z,100304
2017-10-21T07:46:53.089Z,100297
2017-10-21T07:51:56.307Z,100299
2017-10-21T07:56:59.535Z,100313
2017-10-21T08:02:02.751Z,100296
2017-10-21T08:07:05.979Z,100297
2017-10-21T08:12:09.185Z,100303
2017-10-21T08:17:12.373Z,100301
2017-10-21T08:22:15.566Z,100296
2017-10-21T08:27:18.761Z,100285
2017-10-21T08:32:21.954Z,100276
2017-10-21T08:37:25.135Z,100279
2017-10-21T08:42:29.138Z,100268
2017-10-21T08:47:32.308Z,100273
2017-10-21T08:52:35.490Z,100271
2017-10-21T08:57:38.686Z,100276
2017-10-21T09:02:41.882Z,100271
2017-10-21T09:07:45.826Z,100277
2017-10-21T09:12:49.022Z,100273
2017-10-21T09:17:52.238Z,100266
2017-10-21T09:22:55.426Z,100269
2017-10-21T09:27:59.370Z,100260
2017-10-21T09:33:02.539Z,100248
2017-10-21T09:38:06.484Z,100260
2017-10-21T09:43:09.687Z,100249
2017-10-21T09:48:13.641Z,100257
2017-10-21T09:53:16.842Z,100244
2017-10-21T09:58:20.080Z,100245
2017-10-21T10:03:23.270Z,100253
2017-10-21T10:08:26.497Z,100268
2017-10-21T10:13:29.691Z,100279
2017-10-21T10:18:32.885Z,100273
2017-10-21T10:23:36.074Z,100272
2017-10-21T10:28:39.402Z,100264
2017-10-21T10:33:42.606Z,100254
2017-10-21T10:38:45.791Z,100257
2017-10-21T10:43:48.996Z,100252
2017-10-21T10:48:52.169Z,100236
2017-10-21T10:53:56.161Z,100239
2017-10-21T10:58:59.365Z,100236
2017-10-21T11:04:02.581Z,100226
2017-10-21T11:09:05.789Z,100224
2017-10-21T11:14:08.974Z,100216
2017-10-21T11:19:12.197Z,100205
2017-10-21T11:24:15.500Z,100190
2017-10-21T11:29:19.594Z,100193
2017-10-21T11:34:23.545Z,100204
2017-10-21T11:39:26.737Z,100209
2017-10-21T11:44:29.939Z,100201
2017-10-21T11:49:33.158Z,100199
2017-10-21T11:54:36.363Z,100194
2017-10-21T11:59:39.565Z,100191
2017-10-21T12:04:42.758Z,100191
2017-10-21T12:09:45.965Z,100194
2017-10-21T12:14:49.160Z,100190
2017-10-21T12:19:53.142Z,100186
2017-10-21T12:24:56.376Z,100184
2017-10-21T12:29:59.568Z,100187
2017-10-21T12:35:02.760Z,100200
2017-10-21T12:40:05.977Z,100198
2017-10-21T12:45:09.189Z,100189
2017-10-21T12:50:12.414Z,100187
2017-10-21T12:55:16.400Z,100176
2017-10-21T13:00:19.597Z,100192
2017-10-21T13:05:22.806Z,100192
2017-10-21T13:10:26.003Z,100182
2017-10-21T13:15:29.214Z,100184
2017-10-21T13:20:32.427Z,100190
2017-10-21T13:25:35.649Z,100182
2017-10-21T13:30:38.842Z,100189
2017-10-21T13:35:42.194Z,100189
2017-10-21T13:40:45.483Z,100176
2017-10-21T13:45:48.680Z,100170
2017-10-21T13:50:51.831Z,100177
2017-10-21T13:55:55.810Z,100162
2017-10-21T14:00:59.000Z,100177
2017-10-21T14:06:02.193Z,100168
2017-10-21T14:11:05.381Z,100160
2017-10-21T14:16:09.345Z,100159
2017-10-21T14:21:12.557Z,100158
2017-10-21T14:26:15.786Z,100159
2017-10-21T14:31:18.987Z,100162
2017-10-21T14:36:22.177Z,100158
2017-10-21T14:41:25.369Z,100142
2017-10-21T14:46:28.571Z,100148
2017-10-21T14:51:31.794Z,100156
2017-10-21T14:56:34.970Z,100158
2017-10-21T15:01:38.166Z,100157
2017-10-21T15:06:41.369Z,100166
2017-10-21T15:11:44.547Z,100167
2017-10-21T15:16:47.751Z,100161
2017-10-21T15:21:50.941Z,100125
2017-10-21T15:26:54.126Z,100145
2017-10-21T15:31:57.324Z,100148
2017-10-21T15:37:00.515Z,100139
2017-10-21T15:42:03.707Z,100154
2017-10-21T15:47:07.649Z,100147
2017-10-21T15:52:10.854Z,100122
2017-10-21T15:57:14.810Z,100135
2017-10-21T16:02:18.028Z,100128
2017-10-21T16:07:21.221Z,100132
2017-10-21T16:12:24.411Z,100134
2017-10-21T16:17:27.580Z,100128
2017-10-21T16:22:31.565Z,100132
2017-10-21T16:27:34.935Z,100142
2017-10-21T16:32:38.149Z,100136
2017-10-21T16:37:41.390Z,100141
2017-10-21T16:42:44.602Z,100158
2017-10-21T16:47:47.798Z,100161
2017-10-21T16:52:50.997Z,100145
2017-10-21T16:57:54.198Z,100155
2017-10-21T17:02:57.399Z,100175
2017-10-21T17:08:00.598Z,100192
2017-10-21T17:13:03.798Z,100206
2017-10-21T17:18:07.000Z,100209
2017-10-21T17:23:10.972Z,100220
2017-10-21T17:28:14.207Z,100218
2017-10-21T17:33:17.423Z,100210
2017-10-21T17:38:20.619Z,100219
2017-10-21T17:43:23.829Z,100216
2017-10-21T17:48:27.038Z,100222
2017-10-21T17:53:30.238Z,100236
2017-10-21T17:58:33.426Z,100261
2017-10-21T18:03:36.641Z,100239
2017-10-21T18:08:39.841Z,100242
2017-10-21T18:13:43.047Z,100234
2017-10-21T18:18:46.242Z,100277
2017-10-21T18:23:49.454Z,100275
2017-10-21T18:28:52.653Z,100266
2017-10-21T18:33:55.879Z,100278
2017-10-21T18:38:59.073Z,100275
2017-10-21T18:44:02.269Z,100249
2017-10-21T18:49:05.478Z,100232
2017-10-21T18:54:08.695Z,100250
2017-10-21T18:59:11.907Z,100235
2017-10-21T19:04:15.109Z,100289
2017-10-21T19:09:18.321Z,100316
2017-10-21T19:14:21.504Z,100324
2017-10-21T19:19:24.707Z,100306
2017-10-21T19:24:27.914Z,100288
2017-10-21T19:29:31.192Z,100266
2017-10-21T19:34:35.163Z,100283
2017-10-21T19:39:38.391Z,100271
2017-10-21T19:44:41.601Z,100277
2017-10-21T19:49:44.818Z,100276
2017-10-21T19:54:48.791Z,100282
2017-10-21T19:59:52.007Z,100269
2017-10-21T20:04:55.198Z,100266
2017-10-21T20:09:58.420Z,100282
2017-10-21T20:15:01.634Z,100277
2017-10-21T20:20:05.708Z,100287
2017-10-21T20:25:09.642Z,100278
2017-10-21T20:30:12.822Z,100291
2017-10-21T20:35:16.014Z,100311
2017-10-21T20:40:19.233Z,100315
2017-10-21T20:45:22.412Z,100307
2017-10-21T20:50:25.622Z,100315
2017-10-21T20:55:28.841Z,100330
2017-10-21T21:00:32.026Z,100352
2017-10-21T21:05:35.218Z,100341
2017-10-21T21:10:38.424Z,100331
2017-10-21T21:15:41.635Z,100336
2017-10-21T21:20:44.879Z,100335
2017-10-21T21:25:48.073Z,100333
2017-10-21T21:30:51.263Z,100340
2017-10-21T21:35:54.510Z,100351
2017-10-21T21:40:57.693Z,100334
2017-10-21T21:46:00.906Z,100326
2017-10-21T21:51:04.743Z,100321
2017-10-21T21:56:08.051Z,100323
2017-10-21T22:01:11.250Z,100326
2017-10-21T22:06:14.421Z,100330
2017-10-21T22:11:17.621Z,100324
2017-10-21T22:16:20.810Z,100325
2017-10-21T22:21:24.024Z,100331
2017-10-21T22:26:27.214Z,100311
2017-10-21T22:31:30.403Z,100319
2017-10-21T22:36:34.375Z,100296
2017-10-21T22:41:37.577Z,100301
2017-10-21T22:46:41.952Z,100304
2017-10-21T22:51:45.230Z,100279
2017-10-21T22:56:48.436Z,100291
2017-10-21T23:01:52.697Z,100292
2017-10-21T23:06:55.881Z,100199
2017-10-21T23:11:59.065Z,100288
2017-10-21T23:17:02.252Z,100277
2017-10-21T23:22:06.194Z,100288
2017-10-21T23:27:09.382Z,100278
2017-10-21T23:32:12.586Z,100277
2017-10-21T23:37:16.543Z,100274
2017-10-21T23:42:19.763Z,100273
2017-10-21T23:47:22.945Z,100271
2017-10-21T23:52:26.162Z,100276
2017-10-21T23:57:29.352Z,100285
